createdAt,value
2018-07-04T00:01:54.979Z,18.50
2018-07-04T00:04:34.133Z,18.50
2018-07-04T00:07:16.727Z,18.50
2018-07-04T00:09:55.668Z,18.40
2018-07-04T00:12:34.455Z,18.40
2018-07-04T00:17:46.485Z,18.30
2018-07-04T00:20:31.240Z,18.30
2018-07-04T00:23:17.665Z,18.20
2018-07-04T00:25:56.591Z,18.20
2018-07-04T00:28:35.630Z,18.20
2018-07-04T00:31:14.708Z,18.20
2018-07-04T00:33:53.718Z,18.20
2018-07-04T00:36:32.644Z,18.20
2018-07-04T00:41:46.959Z,18.20
2018-07-04T00:44:25.920Z,18.10
2018-07-04T00:47:04.909Z,18.00
2018-07-04T00:49:43.978Z,18.00
2018-07-04T00:54:56.128Z,17.90
2018-07-04T00:57:35.075Z,17.90
2018-07-04T01:00:14.079Z,17.80
2018-07-04T01:02:53.123Z,17.80
2018-07-04T01:05:32.073Z,17.80
2018-07-04T01:08:11.125Z,17.80
2018-07-04T01:13:23.373Z,17.90
2018-07-04T01:16:02.350Z,17.90
2018-07-04T01:18:41.385Z,17.80
2018-07-04T01:21:20.393Z,17.80
2018-07-04T01:23:59.314Z,17.80
2018-07-04T01:26:38.247Z,17.80
2018-07-04T01:29:17.206Z,17.70
2018-07-04T01:31:56.238Z,17.90
2018-07-04T01:34:35.294Z,17.90
2018-07-04T01:37:14.223Z,18.00
2018-07-04T01:39:53.303Z,17.90
2018-07-04T01:42:32.283Z,17.90
2018-07-04T01:45:11.295Z,17.60
2018-07-04T01:47:50.388Z,17.60
2018-07-04T01:53:02.793Z,17.50
2018-07-04T01:55:41.810Z,17.40
2018-07-04T01:58:20.742Z,17.40
2018-07-04T02:00:59.780Z,17.30
2018-07-04T02:03:38.772Z,17.30
2018-07-04T02:06:17.824Z,17.30
2018-07-04T02:08:56.888Z,17.30
2018-07-04T02:14:09.094Z,17.10
2018-07-04T02:16:48.040Z,17.10
2018-07-04T02:19:27.264Z,17.00
2018-07-04T02:22:06.300Z,16.90
2018-07-04T02:27:18.463Z,16.80
2018-07-04T02:29:57.355Z,16.80
2018-07-04T02:32:36.418Z,16.80
2018-07-04T02:35:15.309Z,16.90
2018-07-04T02:37:54.188Z,17.00
2018-07-04T02:40:33.246Z,17.10
2018-07-04T02:43:12.229Z,17.00
2018-07-04T02:45:51.332Z,17.00
2018-07-04T02:48:30.328Z,17.10
2018-07-04T02:51:09.399Z,17.00
2018-07-04T02:53:48.445Z,16.90
2018-07-04T03:01:33.932Z,16.80
2018-07-04T03:04:12.888Z,16.90
2018-07-04T03:06:51.998Z,16.90
2018-07-04T03:09:31.054Z,16.80
2018-07-04T03:12:09.973Z,16.70
2018-07-04T03:14:49.105Z,16.70
2018-07-04T03:17:28.018Z,16.70
2018-07-04T03:20:07.533Z,16.70
2018-07-04T03:22:46.648Z,16.80
2018-07-04T03:25:25.744Z,16.80
2018-07-04T03:28:04.749Z,16.70
2018-07-04T03:30:43.696Z,16.70
2018-07-04T03:33:22.525Z,16.50
2018-07-04T03:41:08.044Z,16.30
2018-07-04T03:46:19.979Z,16.10
2018-07-04T03:48:58.830Z,16.10
2018-07-04T03:51:37.976Z,16.20
2018-07-04T03:54:16.816Z,16.20
2018-07-04T03:56:55.924Z,16.10
2018-07-04T03:59:34.990Z,16.00
2018-07-04T04:04:47.132Z,15.80
2018-07-04T04:07:26.227Z,15.80
2018-07-04T04:10:05.201Z,15.80
2018-07-04T04:12:44.005Z,15.80
2018-07-04T04:15:23.010Z,15.80
2018-07-04T04:20:35.094Z,16.00
2018-07-04T04:23:14.526Z,15.90
2018-07-04T04:25:53.590Z,16.00
2018-07-04T04:31:05.785Z,16.30
2018-07-04T04:36:18.139Z,16.30
2018-07-04T04:41:30.382Z,16.20
2018-07-04T04:44:09.268Z,16.20
2018-07-04T04:46:48.149Z,16.30
2018-07-04T04:49:26.976Z,16.30
2018-07-04T04:52:06.642Z,16.30
2018-07-04T04:54:50.828Z,16.40
2018-07-04T05:00:02.930Z,16.50
2018-07-04T05:05:14.940Z,16.70
2018-07-04T05:10:27.066Z,16.80
2018-07-04T05:13:05.909Z,16.90
2018-07-04T05:15:45.103Z,17.00
2018-07-04T05:18:24.056Z,17.00
2018-07-04T05:21:02.903Z,17.10
2018-07-04T05:23:41.883Z,17.20
2018-07-04T05:26:21.580Z,17.20
2018-07-04T05:29:00.450Z,17.10
2018-07-04T05:31:39.351Z,17.20
2018-07-04T05:36:51.355Z,17.20
2018-07-04T05:39:30.367Z,17.30
2018-07-04T05:42:09.270Z,17.20
2018-07-04T05:44:48.325Z,17.30
2018-07-04T05:47:27.211Z,17.50
2018-07-04T05:52:39.422Z,17.70
2018-07-04T05:57:51.541Z,18.10
2018-07-04T06:00:30.475Z,18.30
2018-07-04T06:05:42.445Z,18.80
2018-07-04T06:08:21.450Z,19.00
2018-07-04T06:11:00.417Z,19.20
2018-07-04T06:13:39.329Z,19.40
2018-07-04T06:18:51.375Z,19.50
2018-07-04T06:21:30.290Z,19.70
2018-07-04T06:26:42.522Z,19.80
2018-07-04T06:31:54.661Z,18.20
2018-07-04T06:34:33.650Z,20.20
2018-07-04T06:37:24.182Z,20.30
2018-07-04T06:39:52.791Z,20.40
2018-07-04T06:42:19.917Z,20.60
2018-07-04T06:44:46.451Z,20.60
2018-07-04T06:49:39.961Z,20.80
2018-07-04T06:54:33.569Z,20.80
2018-07-04T06:57:00.033Z,20.90
2018-07-04T06:59:26.574Z,20.90
2018-07-04T07:01:53.131Z,20.90
2018-07-04T07:04:31.943Z,21.00
2018-07-04T07:07:10.775Z,21.10
2018-07-04T07:09:49.815Z,21.30
2018-07-04T07:12:28.737Z,21.40
2018-07-04T07:15:07.772Z,21.60
2018-07-04T07:17:46.532Z,21.60
2018-07-04T07:20:25.591Z,21.80
2018-07-04T07:28:10.767Z,22.30
2018-07-04T07:30:49.848Z,22.50
2018-07-04T07:33:28.884Z,22.70
2018-07-04T07:36:07.981Z,22.70
2018-07-04T07:38:47.002Z,22.90
2018-07-04T07:41:25.887Z,23.00
2018-07-04T07:44:04.981Z,23.10
2018-07-04T07:46:43.986Z,23.40
2018-07-04T07:49:22.951Z,23.50
2018-07-04T07:52:01.913Z,23.70
2018-07-04T07:54:41.043Z,23.70
2018-07-04T07:57:20.021Z,23.90
2018-07-04T07:59:58.772Z,24.00
2018-07-04T08:02:37.771Z,24.10
2018-07-04T08:05:16.637Z,24.20
2018-07-04T08:07:55.668Z,24.30
2018-07-04T08:10:34.425Z,24.40
2018-07-04T08:13:13.562Z,24.50
2018-07-04T08:15:52.516Z,24.70
2018-07-04T08:23:37.708Z,25.00
2018-07-04T08:26:16.716Z,25.00
2018-07-04T08:31:29.178Z,25.00
2018-07-04T08:34:08.071Z,25.00
2018-07-04T08:36:46.931Z,25.00
2018-07-04T08:39:25.931Z,25.00
2018-07-04T08:42:04.720Z,24.80
2018-07-04T08:44:43.714Z,24.90
2018-07-04T08:47:22.553Z,24.90
2018-07-04T08:50:01.368Z,24.90
2018-07-04T08:55:13.613Z,24.80
2018-07-04T08:57:52.433Z,24.90
2018-07-04T09:00:31.497Z,25.00
2018-07-04T09:03:10.507Z,24.90
2018-07-04T09:05:49.433Z,24.90
2018-07-04T09:08:28.411Z,24.90
2018-07-04T09:11:07.387Z,24.80
2018-07-04T09:13:46.351Z,24.80
2018-07-04T09:16:25.303Z,24.90
2018-07-04T09:19:04.241Z,25.00
2018-07-04T09:21:43.233Z,25.10
2018-07-04T09:24:22.107Z,25.20
2018-07-04T09:27:01.227Z,25.30
2018-07-04T09:29:40.119Z,25.40
2018-07-04T09:32:19.033Z,25.40
2018-07-04T09:34:57.919Z,25.40
2018-07-04T09:37:36.858Z,25.10
2018-07-04T09:40:15.683Z,25.10
2018-07-04T09:42:54.676Z,25.00
2018-07-04T09:45:33.499Z,24.90
2018-07-04T09:48:12.477Z,24.70
2018-07-04T09:53:24.640Z,24.60
2018-07-04T09:56:03.518Z,24.70
2018-07-04T09:58:42.510Z,24.80
2018-07-04T10:01:23.366Z,24.80
2018-07-04T10:04:02.225Z,24.90
2018-07-04T10:06:41.397Z,24.90
2018-07-04T10:09:20.531Z,25.00
2018-07-04T10:11:59.524Z,25.10
2018-07-04T10:14:39.171Z,25.30
2018-07-04T10:17:18.133Z,25.20
2018-07-04T10:19:57.149Z,25.00
2018-07-04T10:25:09.432Z,24.70
2018-07-04T10:30:21.399Z,24.40
2018-07-04T10:35:33.284Z,24.10
2018-07-04T10:38:12.157Z,23.70
2018-07-04T10:40:51.096Z,23.40
2018-07-04T10:43:29.993Z,23.30
2018-07-04T10:46:08.926Z,23.20
2018-07-04T10:48:47.788Z,23.20
2018-07-04T10:51:26.539Z,23.30
2018-07-04T10:54:05.578Z,23.30
2018-07-04T10:56:44.688Z,23.40
2018-07-04T10:59:23.539Z,23.40
2018-07-04T11:02:02.484Z,23.40
2018-07-04T11:04:41.460Z,23.50
2018-07-04T11:07:20.418Z,23.50
2018-07-04T11:09:59.439Z,23.50
2018-07-04T11:12:38.199Z,23.60
2018-07-04T11:15:17.140Z,23.50
2018-07-04T11:17:55.947Z,23.60
2018-07-04T11:20:35.044Z,23.40
2018-07-04T11:23:13.914Z,23.20
2018-07-04T11:30:59.183Z,22.20
2018-07-04T11:33:38.112Z,22.00
2018-07-04T11:36:17.018Z,21.80
2018-07-04T11:44:02.079Z,21.20
2018-07-04T11:46:28.619Z,21.10
2018-07-04T11:51:22.203Z,21.00
2018-07-04T11:53:48.774Z,21.00
2018-07-04T11:56:15.297Z,21.10
2018-07-04T12:01:08.777Z,21.20
2018-07-04T12:03:47.717Z,21.40
2018-07-04T12:08:47.330Z,21.80
2018-07-04T12:11:13.889Z,22.00
2018-07-04T12:13:40.389Z,22.20
2018-07-04T12:16:06.972Z,22.40
2018-07-04T12:18:33.500Z,22.50
2018-07-04T12:21:00.066Z,22.70
2018-07-04T12:23:26.588Z,22.80
2018-07-04T12:28:20.099Z,23.30
2018-07-04T12:30:46.629Z,23.50
2018-07-04T12:33:13.148Z,23.90
2018-07-04T12:35:39.638Z,24.40
2018-07-04T12:40:33.697Z,25.00
2018-07-04T12:43:00.210Z,25.40
2018-07-04T12:45:26.733Z,25.80
2018-07-04T12:47:53.284Z,26.10
2018-07-04T12:50:24.907Z,26.30
2018-07-04T12:55:35.379Z,27.40
2018-07-04T12:58:14.641Z,27.70
2018-07-04T13:03:26.507Z,28.40
2018-07-04T13:06:05.372Z,29.40
2018-07-04T13:08:44.349Z,29.30
2018-07-04T13:11:23.278Z,29.70
2018-07-04T13:14:02.484Z,30.00
2018-07-04T13:16:41.419Z,30.20
2018-07-04T13:19:20.428Z,30.60
2018-07-04T13:24:32.495Z,31.70
2018-07-04T13:27:11.382Z,32.20
2018-07-04T13:29:50.240Z,32.20
2018-07-04T13:32:29.064Z,31.60
2018-07-04T13:35:08.088Z,31.50
2018-07-04T13:37:47.010Z,31.70
2018-07-04T13:40:25.833Z,32.70
2018-07-04T13:43:04.864Z,33.10
2018-07-04T13:45:43.704Z,33.80
2018-07-04T13:48:22.725Z,34.30
2018-07-04T13:51:01.725Z,34.60
2018-07-04T13:53:40.688Z,34.70
2018-07-04T13:56:19.583Z,35.00
2018-07-04T13:58:58.537Z,34.90
2018-07-04T14:04:10.408Z,34.00
2018-07-04T14:06:49.268Z,33.70
2018-07-04T14:12:01.354Z,33.00
2018-07-04T14:17:13.259Z,32.00
2018-07-04T14:19:52.059Z,31.60
2018-07-04T14:25:04.034Z,30.90
2018-07-04T14:27:42.958Z,31.20
2018-07-04T14:32:55.041Z,30.70
2018-07-04T14:35:33.794Z,30.80
2018-07-04T14:43:19.232Z,31.20
2018-07-04T14:45:58.371Z,31.40
2018-07-04T14:51:10.405Z,31.20
2018-07-04T14:53:49.292Z,31.60
2018-07-04T14:59:01.730Z,30.80
2018-07-04T15:01:40.774Z,30.40
2018-07-04T15:09:25.811Z,30.60
2018-07-04T15:14:37.865Z,30.30
2018-07-04T15:17:16.889Z,30.10
2018-07-04T15:22:28.699Z,29.70
2018-07-04T15:27:40.530Z,29.30
2018-07-04T15:30:19.528Z,29.30
2018-07-04T15:32:58.518Z,29.10
2018-07-04T15:35:37.419Z,29.00
2018-07-04T15:38:16.737Z,28.80
2018-07-04T15:40:55.625Z,28.50
2018-07-04T15:43:34.544Z,28.10
2018-07-04T15:46:13.364Z,27.70
2018-07-04T15:48:52.266Z,27.60
2018-07-04T15:51:31.095Z,27.50
2018-07-04T15:54:09.962Z,27.30
2018-07-04T15:59:22.428Z,27.50
2018-07-04T16:02:01.502Z,27.60
2018-07-04T16:04:40.341Z,27.40
2018-07-04T16:07:19.401Z,27.30
2018-07-04T16:15:04.536Z,27.10
2018-07-04T16:20:16.538Z,26.70
2018-07-04T16:22:55.572Z,26.50
2018-07-04T16:25:38.941Z,26.60
2018-07-04T16:28:24.465Z,27.10
2018-07-04T16:31:03.891Z,27.40
2018-07-04T16:36:17.016Z,27.90
2018-07-04T16:38:56.457Z,27.90
2018-07-04T16:41:36.012Z,28.00
2018-07-04T16:44:15.349Z,28.00
2018-07-04T16:46:54.796Z,28.10
2018-07-04T16:49:34.216Z,28.10
2018-07-04T16:52:13.579Z,28.10
2018-07-04T16:54:53.892Z,28.10
2018-07-04T16:57:33.381Z,27.90
2018-07-04T17:00:13.823Z,27.80
2018-07-04T17:02:53.360Z,27.70
2018-07-04T17:05:32.679Z,27.80
2018-07-04T17:10:45.777Z,27.70
2018-07-04T17:13:25.345Z,27.70
2018-07-04T17:16:04.541Z,27.60
2018-07-04T17:18:43.857Z,27.80
2018-07-04T17:23:59.791Z,27.60
2018-07-04T17:26:39.454Z,27.60
2018-07-04T17:31:52.405Z,27.30
2018-07-04T17:34:31.850Z,27.30
2018-07-04T17:37:11.299Z,27.30
2018-07-04T17:42:24.630Z,27.00
2018-07-04T17:45:04.134Z,26.90
2018-07-04T17:47:43.250Z,26.80
2018-07-04T17:50:23.517Z,26.60
2018-07-04T17:53:02.766Z,26.60
2018-07-04T17:55:42.017Z,26.20
2018-07-04T17:58:21.407Z,25.80
2018-07-04T18:01:00.694Z,25.80
2018-07-04T18:03:40.140Z,25.40
2018-07-04T18:06:19.367Z,25.30
2018-07-04T18:08:58.419Z,24.80
2018-07-04T18:11:37.256Z,24.60
2018-07-04T18:14:16.628Z,24.60
2018-07-04T18:16:56.040Z,24.40
2018-07-04T18:19:35.374Z,24.20
2018-07-04T18:22:14.762Z,23.60
2018-07-04T18:24:54.001Z,23.50
2018-07-04T18:27:33.364Z,23.20
2018-07-04T18:30:12.896Z,23.10
2018-07-04T18:32:52.390Z,22.90
2018-07-04T18:35:31.832Z,22.70
2018-07-04T18:38:11.191Z,22.50
2018-07-04T18:40:50.411Z,22.40
2018-07-04T18:43:29.837Z,22.30
2018-07-04T18:46:09.211Z,22.20
2018-07-04T18:48:48.490Z,22.00
2018-07-04T18:54:00.378Z,21.70
2018-07-04T18:59:12.663Z,21.40
2018-07-04T19:01:51.524Z,21.30
2018-07-04T19:07:03.583Z,21.20
2018-07-04T19:14:48.904Z,21.20
2018-07-04T19:17:27.770Z,21.20
2018-07-04T19:22:39.835Z,21.30
2018-07-04T19:27:51.845Z,21.10
2018-07-04T19:30:30.742Z,21.00
2018-07-04T19:33:09.511Z,20.90
2018-07-04T19:35:48.406Z,20.90
2018-07-04T19:41:00.456Z,20.80
2018-07-04T19:48:46.050Z,20.20
2018-07-04T19:51:25.056Z,20.00
2018-07-04T19:59:10.454Z,19.40
2018-07-04T20:04:22.667Z,19.40
2018-07-04T20:07:01.884Z,19.30
2018-07-04T20:09:40.852Z,19.30
2018-07-04T20:12:19.901Z,19.20
2018-07-04T20:14:58.781Z,19.00
2018-07-04T20:17:37.745Z,18.90
2018-07-04T20:20:16.740Z,18.90
2018-07-04T20:25:28.759Z,18.80
2018-07-04T20:28:07.720Z,18.70
2018-07-04T20:30:46.710Z,18.60
2018-07-04T20:35:58.761Z,18.50
2018-07-04T20:38:37.910Z,18.50
2018-07-04T20:41:17.076Z,18.40
2018-07-04T20:43:56.151Z,18.50
2018-07-04T20:46:35.093Z,18.40
2018-07-04T20:51:49.130Z,18.40
2018-07-04T20:54:28.067Z,18.40
2018-07-04T20:59:41.953Z,18.30
2018-07-04T21:02:21.687Z,18.20
2018-07-04T21:05:01.837Z,18.20
2018-07-04T21:07:40.770Z,18.10
2018-07-04T21:10:20.430Z,18.00
2018-07-04T21:13:00.446Z,18.00
2018-07-04T21:15:39.430Z,17.90
2018-07-04T21:20:52.622Z,17.80
2018-07-04T21:23:34.202Z,17.80
2018-07-04T21:26:13.219Z,17.80
2018-07-04T21:28:52.307Z,17.80
2018-07-04T21:34:05.300Z,17.70
2018-07-04T21:36:44.709Z,17.70
2018-07-04T21:39:23.916Z,17.70
2018-07-04T21:42:02.799Z,17.60
2018-07-04T21:44:42.552Z,17.50
2018-07-04T21:57:36.677Z,17.50
2018-07-04T22:00:22.322Z,17.60
2018-07-04T22:03:01.485Z,17.60
2018-07-04T22:05:40.836Z,17.60
2018-07-04T22:08:20.481Z,17.60
2018-07-04T22:10:59.556Z,17.40
2018-07-04T22:16:11.773Z,17.20
2018-07-04T22:21:23.627Z,17.20
2018-07-04T22:24:02.689Z,17.10
2018-07-04T22:26:41.688Z,17.00
2018-07-04T22:29:20.700Z,17.10
2018-07-04T22:31:59.801Z,17.10
2018-07-04T22:34:38.725Z,17.40
2018-07-04T22:39:50.833Z,17.20
2018-07-04T22:42:29.708Z,17.30
2018-07-04T22:45:08.616Z,17.30
2018-07-04T22:47:47.735Z,17.20
2018-07-04T22:50:26.679Z,17.10
2018-07-04T22:55:38.746Z,16.90
2018-07-04T22:58:17.760Z,16.80
2018-07-04T23:06:02.716Z,16.50
2018-07-04T23:08:41.645Z,16.40
2018-07-04T23:11:20.471Z,16.30
2018-07-04T23:13:59.427Z,16.30
2018-07-04T23:16:38.243Z,16.20
2018-07-04T23:21:50.483Z,16.10
2018-07-04T23:27:02.473Z,16.10
2018-07-04T23:32:14.788Z,16.00
2018-07-04T23:34:53.834Z,16.00
2018-07-04T23:40:06.060Z,16.20
2018-07-04T23:42:45.032Z,16.30
2018-07-04T23:45:24.133Z,16.30
2018-07-04T23:48:03.032Z,16.20
2018-07-04T23:50:48.223Z,16.10
2018-07-04T23:53:27.245Z,16.00
2018-07-04T23:56:06.182Z,15.80
